^^
Station Historical Data
Daily Summary for January 5, 2018 Units:  Metric    English   Both
« Previous Day
Next Day »
Daily Weekly Monthly Yearly Custom
  High: Low: Average:
Temperature: 34.6 °C 17.2 °C 26.1 °C
Dew Point: 10.6 °C -3 °C 4.2 °C
Humidity: 57% 10% 30%
Wind Speed: 20.9km/h 0km/h 3.7km/h
Wind Gust: 24.1km/h - -
Wind- - SE
Pressure: 1025.6 hPa 1019.2 hPa -
Precipitation: 0 mm    
Historical Graphs
 
 
Tabular Data for January 5, 2018
Time Temperature Dew Point Pressure Wind Wind Speed Wind Gust Humidity Rainfall Rate (Hourly) solar Conditions
00:01 21.6 °C 10.1 °C 1023.2 hPa Calm   4.8 km/h 48% 0 mm 0.0 W/m2
00:06 21.4 °C 10.2 °C 1023.2 hPa Calm   6.4 km/h 49% 0 mm 0.0 W/m2
00:07 21.4 °C 10.2 °C 1023.2 hPa ENE 3.2 km/h 6.4 km/h 49% 0 mm 0.0 W/m2
00:11 21.3 °C 10.5 °C 1023.2 hPa Calm   3.2 km/h 50% 0 mm 0.0 W/m2
00:17 21.2 °C 10.4 °C 1023.2 hPa Calm   4.8 km/h 50% 0 mm 0.0 W/m2
00:23 21.1 °C 10.6 °C 1023.2 hPa Calm   1.6 km/h 51% 0 mm 0.0 W/m2
00:28 20.9 °C 10.4 °C 1023.2 hPa Calm   4.8 km/h 51% 0 mm 0.0 W/m2
00:37 20.7 °C 10.2 °C 1023.2 hPa Calm     51% 0 mm 0.0 W/m2
00:42 20.6 °C 10.1 °C 1023.2 hPa Calm     51% 0 mm 0.0 W/m2
00:44 20.6 °C 10.1 °C 1023.2 hPa Calm     51% 0 mm 0.0 W/m2
00:50 20.4 °C 9.9 °C 1023.2 hPa Calm     51% 0 mm 0.0 W/m2
00:56 20.4 °C 9.9 °C 1022.9 hPa Calm     51% 0 mm 0.0 W/m2
01:01 20.3 °C 9.8 °C 1022.9 hPa Calm     51% 0 mm 0.0 W/m2
01:06 20.3 °C 9.8 °C 1022.9 hPa Calm     51% 0 mm 0.0 W/m2
01:07 20.3 °C 9.8 °C 1022.9 hPa Calm     51% 0 mm 0.0 W/m2
01:12 20.3 °C 9.8 °C 1022.9 hPa Calm     51% 0 mm 0.0 W/m2
01:17 20.3 °C 9.8 °C 1023.2 hPa Calm     51% 0 mm 0.0 W/m2
01:24 20.2 °C 9.4 °C 1022.9 hPa Calm     50% 0 mm 0.0 W/m2
01:25 20.2 °C 9.4 °C 1023.2 hPa Calm     50% 0 mm 0.0 W/m2
01:28 20.2 °C 9.4 °C 1023.2 hPa Calm     50% 0 mm 0.0 W/m2
01:35 20.1 °C 9.4 °C 1022.9 hPa Calm     50% 0 mm 0.0 W/m2
01:40 19.9 °C 9.2 °C 1022.9 hPa Calm     50% 0 mm 0.0 W/m2
01:47 19.8 °C 9.4 °C 1022.9 hPa Calm   1.6 km/h 51% 0 mm 0.0 W/m2
01:52 19.7 °C 9.6 °C 1022.9 hPa Calm   4.8 km/h 52% 0 mm 0.0 W/m2
01:53 19.8 °C 9.4 °C 1022.9 hPa Calm   1.6 km/h 51% 0 mm 0.0 W/m2
01:58 19.7 °C 10.1 °C 1022.9 hPa ENE 4.7 km/h 4.8 km/h 54% 0 mm 0.0 W/m2
02:03 19.6 °C 9.8 °C 1022.9 hPa Calm   4.8 km/h 53% 0 mm 0.0 W/m2
02:09 19.4 °C 9.6 °C 1023.2 hPa SE 3.2 km/h 4.8 km/h 53% 0 mm 0.0 W/m2
02:16 19.3 °C 9.5 °C 1023.2 hPa Calm   1.6 km/h 53% 0 mm 0.0 W/m2
02:22 19.3 °C 9.5 °C 1023.2 hPa ESE 1.4 km/h 4.8 km/h 53% 0 mm 0.0 W/m2
02:28 19.3 °C 9.5 °C 1023.2 hPa ENE 1.4 km/h 3.2 km/h 53% 0 mm 0.0 W/m2
02:33 19.2 °C 9.1 °C 1023.2 hPa Calm   3.2 km/h 52% 0 mm 0.0 W/m2
02:38 19.2 °C 8.8 °C 1023.2 hPa Calm   1.6 km/h 51% 0 mm 0.0 W/m2
02:44 19.2 °C 8.8 °C 1023.2 hPa Calm   1.6 km/h 51% 0 mm 0.0 W/m2
02:49 19.2 °C 8.8 °C 1023.2 hPa Calm   3.2 km/h 51% 0 mm 0.0 W/m2
02:54 19.1 °C 9 °C 1023.2 hPa East 1.4 km/h 8 km/h 52% 0 mm 0.0 W/m2
03:00 19.1 °C 9 °C 1023.2 hPa Calm   4.8 km/h 52% 0 mm 0.0 W/m2
03:10 19 °C 8.9 °C 1023.2 hPa ESE 3.2 km/h 4.8 km/h 52% 0 mm 0.0 W/m2
03:15 19 °C 8.9 °C 1023.2 hPa Calm   3.2 km/h 52% 0 mm 0.0 W/m2
03:16 19 °C 8.9 °C 1023.2 hPa Calm   3.2 km/h 52% 0 mm 0.0 W/m2
03:21 18.9 °C 8.8 °C 1023.2 hPa Calm   4.8 km/h 52% 0 mm 0.0 W/m2
03:27 18.9 °C 8.8 °C 1023.2 hPa Calm   4.8 km/h 52% 0 mm 0.0 W/m2
03:32 18.9 °C 8.8 °C 1023.2 hPa Calm   3.2 km/h 52% 0 mm 0.0 W/m2
03:35 18.9 °C 8.8 °C 1023.2 hPa Calm   4.8 km/h 52% 0 mm 0.0 W/m2
03:38 18.9 °C 9.1 °C 1023.2 hPa Calm   3.2 km/h 53% 0 mm 0.0 W/m2
03:42 18.9 °C 9.1 °C 1023.2 hPa ENE 1.4 km/h 4.8 km/h 53% 0 mm 0.0 W/m2
03:43 18.9 °C 9.1 °C 1023.2 hPa ENE 1.4 km/h 4.8 km/h 53% 0 mm 0.0 W/m2
03:48 18.9 °C 9.1 °C 1023.2 hPa ESE 3.2 km/h 4.8 km/h 53% 0 mm 0.0 W/m2
03:50 18.9 °C 9.1 °C 1023.2 hPa Calm   6.4 km/h 53% 0 mm 0.0 W/m2
03:55 18.9 °C 9.1 °C 1023.2 hPa East 3.2 km/h 3.2 km/h 53% 0 mm 0.0 W/m2
04:01 18.9 °C 8.8 °C 1023.2 hPa ENE 4.7 km/h 4.8 km/h 52% 0 mm 0.0 W/m2
04:06 18.8 °C 8.4 °C 1023.2 hPa SE 3.2 km/h 3.2 km/h 51% 0 mm 0.0 W/m2
04:07 18.8 °C 8.4 °C 1023.2 hPa East 4.7 km/h 8 km/h 51% 0 mm 0.0 W/m2
04:13 18.8 °C 8.7 °C 1023.2 hPa East 1.4 km/h 4.8 km/h 52% 0 mm 0.0 W/m2
04:18 18.7 °C 8.6 °C 1023.2 hPa East 1.4 km/h 6.4 km/h 52% 0 mm 0.0 W/m2
04:23 18.6 °C 8.8 °C 1023.2 hPa East 3.2 km/h 3.2 km/h 53% 0 mm 0.0 W/m2
04:28 18.6 °C 8.8 °C 1023.2 hPa ENE 1.4 km/h 4.8 km/h 53% 0 mm 0.0 W/m2
04:33 18.5 °C 8.7 °C 1023.2 hPa East 3.2 km/h 6.4 km/h 53% 0 mm 0.0 W/m2
04:36 18.5 °C 8.5 °C 1023.2 hPa East 1.4 km/h 4.8 km/h 52% 0 mm 0.0 W/m2
04:38 18.4 °C 8.6 °C 1023.2 hPa ENE 1.4 km/h 6.4 km/h 53% 0 mm 0.0 W/m2
04:44 18.4 °C 8.6 °C 1023.2 hPa Calm   4.8 km/h 53% 0 mm 0.0 W/m2
04:47 18.4 °C 8.6 °C 1023.2 hPa ENE 1.4 km/h 3.2 km/h 53% 0 mm 0.0 W/m2
04:49 18.4 °C 8.6 °C 1023.2 hPa Calm   4.8 km/h 53% 0 mm 0.0 W/m2
04:51 18.4 °C 8.6 °C 1023.2 hPa Calm   3.2 km/h 53% 0 mm 0.0 W/m2
04:52 18.3 °C 8.6 °C 1023.2 hPa ESE 1.4 km/h 3.2 km/h 53% 0 mm 0.0 W/m2
04:57 18.3 °C 8.6 °C 1023.6 hPa Calm   1.6 km/h 53% 0 mm 0.0 W/m2
05:02 18.2 °C 8.5 °C 1023.6 hPa East 1.4 km/h 3.2 km/h 53% 0 mm 0.0 W/m2
05:07 18.2 °C 8.5 °C 1023.6 hPa Calm   4.8 km/h 53% 0 mm 0.0 W/m2
05:12 18.2 °C 8.5 °C 1023.6 hPa Calm   6.4 km/h 53% 0 mm 0.0 W/m2
05:17 18.2 °C 8.5 °C 1023.9 hPa Calm   4.8 km/h 53% 0 mm 0.0 W/m2
05:23 18.2 °C 8.5 °C 1023.9 hPa East 1.4 km/h 3.2 km/h 53% 0 mm 0.0 W/m2
05:31 18.1 °C 8.6 °C 1023.9 hPa Calm   4.8 km/h 54% 0 mm 0.0 W/m2
05:36 18 °C 8.6 °C 1023.9 hPa Calm   4.8 km/h 54% 0 mm 0.0 W/m2
05:41 17.9 °C 8.5 °C 1024.3 hPa Calm   3.2 km/h 54% 0 mm 0.0 W/m2
05:46 17.9 °C 8.5 °C 1024.3 hPa Calm   4.8 km/h 54% 0 mm 0.0 W/m2
05:50 17.8 °C 8.4 °C 1024.3 hPa Calm   3.2 km/h 54% 0 mm 0.0 W/m2
05:55 17.8 °C 8.6 °C 1024.3 hPa East 1.4 km/h 1.6 km/h 55% 0 mm 0.0 W/m2
06:02 17.7 °C 8.5 °C 1024.3 hPa Calm   3.2 km/h 55% 0 mm 0.0 W/m2
06:03 17.8 °C 8.6 °C 1024.3 hPa Calm   3.2 km/h 55% 0 mm 0.0 W/m2
06:08 17.7 °C 8.5 °C 1024.3 hPa Calm   1.6 km/h 55% 0 mm 0.0 W/m2
06:14 17.6 °C 8.7 °C 1024.3 hPa ENE 1.4 km/h 3.2 km/h 56% 0 mm 0.0 W/m2
06:15 17.6 °C 8.7 °C 1024.6 hPa East 1.4 km/h 6.4 km/h 56% 0 mm 0.0 W/m2
06:20 17.6 °C 8.7 °C 1024.6 hPa ESE 4.7 km/h 6.4 km/h 56% 0 mm 7.0 W/m2
06:25 17.5 °C 8.6 °C 1024.6 hPa NE 1.4 km/h 9.7 km/h 56% 0 mm 9.0 W/m2
06:32 17.4 °C 8.5 °C 1024.6 hPa East 4.7 km/h 6.4 km/h 56% 0 mm 11.0 W/m2
06:34 17.4 °C 8.5 °C 1024.6 hPa East 1.4 km/h 4.8 km/h 56% 0 mm 12.0 W/m2
06:37 17.4 °C 8.5 °C 1024.6 hPa ENE 1.4 km/h 3.2 km/h 56% 0 mm 12.0 W/m2
06:38 17.3 °C 8.4 °C 1024.6 hPa Calm   3.2 km/h 56% 0 mm 14.0 W/m2
06:43 17.3 °C 8.4 °C 1024.6 hPa Calm   6.4 km/h 56% 0 mm 16.0 W/m2
06:48 17.2 °C 8.3 °C 1024.9 hPa East 4.7 km/h 6.4 km/h 56% 0 mm 18.0 W/m2
06:55 17.2 °C 8.3 °C 1024.9 hPa East 1.4 km/h 3.2 km/h 56% 0 mm 19.0 W/m2
06:59 17.3 °C 8.7 °C 1024.9 hPa Calm   3.2 km/h 57% 0 mm 19.0 W/m2
07:04 17.4 °C 8.5 °C 1024.9 hPa Calm   6.4 km/h 56% 0 mm 21.0 W/m2
07:09 17.8 °C 8.6 °C 1024.9 hPa ENE 1.4 km/h 8 km/h 55% 0 mm 23.0 W/m2
07:14 18.1 °C 8.9 °C 1024.9 hPa NE 3.2 km/h 4.8 km/h 55% 0 mm 25.0 W/m2
07:15 18.2 °C 9 °C 1024.9 hPa Calm   4.8 km/h 55% 0 mm 25.0 W/m2
07:20 18.6 °C 9.1 °C 1024.9 hPa ESE 3.2 km/h 6.4 km/h 54% 0 mm 25.0 W/m2
07:25 19.1 °C 9 °C 1024.9 hPa NNE 6.4 km/h 8 km/h 52% 0 mm 26.0 W/m2
07:26 19.1 °C 9 °C 1024.9 hPa ENE 7.9 km/h 8 km/h 52% 0 mm 26.0 W/m2
07:31 19.6 °C 8.9 °C 1025.3 hPa North 4.7 km/h 9.7 km/h 50% 0 mm 28.0 W/m2
07:36 20.1 °C 8.7 °C 1024.9 hPa NNE 1.4 km/h 4.8 km/h 48% 0 mm 28.0 W/m2
07:43 20.6 °C 8.6 °C 1025.3 hPa NE 3.2 km/h 11.3 km/h 46% 0 mm 35.0 W/m2
07:48 20.9 °C 8.5 °C 1025.3 hPa ENE 1.4 km/h 9.7 km/h 45% 0 mm 127.0 W/m2
07:54 21.3 °C 8.2 °C 1025.3 hPa NNE 3.2 km/h 11.3 km/h 43% 0 mm 318.0 W/m2
08:00 21.9 °C 7.3 °C 1025.3 hPa NE 1.4 km/h 8 km/h 39% 0 mm 380.0 W/m2
08:05 22.6 °C 6.4 °C 1025.3 hPa East 6.4 km/h 12.9 km/h 35% 0 mm 399.0 W/m2
08:06 22.7 °C 6.4 °C 1025.3 hPa ENE 3.2 km/h 9.7 km/h 35% 0 mm 403.0 W/m2
08:10 23.2 °C 6.5 °C 1025.3 hPa ENE 3.2 km/h 8 km/h 34% 0 mm 420.0 W/m2
08:11 23.3 °C 6.6 °C 1025.3 hPa NE 3.2 km/h 6.4 km/h 34% 0 mm 424.0 W/m2
08:15 23.8 °C 6.1 °C 1025.3 hPa ENE 3.2 km/h 12.9 km/h 32% 0 mm 439.0 W/m2
08:20 24.3 °C 6.1 °C 1025.6 hPa NNE 9.7 km/h 9.7 km/h 31% 0 mm 461.0 W/m2
08:25 24.7 °C 6 °C 1025.6 hPa North 4.7 km/h 8 km/h 30% 0 mm 480.0 W/m2
08:30 25.1 °C 5.8 °C 1025.6 hPa NNW 4.7 km/h 11.3 km/h 29% 0 mm 501.0 W/m2
08:37 25.4 °C 5.6 °C 1025.6 hPa NNW 4.7 km/h 11.3 km/h 28% 0 mm 524.0 W/m2
08:38 25.5 °C 5.7 °C 1025.6 hPa NNW 6.4 km/h 11.3 km/h 28% 0 mm 527.0 W/m2
08:43 25.7 °C 5.8 °C 1025.6 hPa NNW 4.7 km/h 11.3 km/h 28% 0 mm 547.0 W/m2
08:48 25.9 °C 5.5 °C 1025.6 hPa NNW 11.1 km/h 11.3 km/h 27% 0 mm 566.0 W/m2
08:52 26 °C 5.6 °C 1025.6 hPa North 3.2 km/h 6.4 km/h 27% 0 mm 584.0 W/m2
08:55 26.1 °C 5.1 °C 1025.6 hPa North 4.7 km/h 11.3 km/h 26% 0 mm 589.0 W/m2
09:00 26.3 °C 5.3 °C 1025.6 hPa ENE 14.5 km/h 14.5 km/h 26% 0 mm 612.0 W/m2
09:05 26.4 °C 5.3 °C 1025.6 hPa North 3.2 km/h 14.5 km/h 26% 0 mm 633.0 W/m2
09:10 26.5 °C 5.4 °C 1025.6 hPa NNE 7.9 km/h 9.7 km/h 26% 0 mm 652.0 W/m2
09:16 26.8 °C 5.7 °C 1025.3 hPa Calm   6.4 km/h 26% 0 mm 670.0 W/m2
09:17 26.8 °C 5.7 °C 1025.3 hPa Calm   6.4 km/h 26% 0 mm 673.0 W/m2
09:23 27.1 °C 5.9 °C 1025.3 hPa North 4.7 km/h 8 km/h 26% 0 mm 696.0 W/m2
09:30 27.3 °C 5.5 °C 1025.6 hPa NW 3.2 km/h 12.9 km/h 25% 0 mm 715.0 W/m2
09:37 27.4 °C 5.6 °C 1025.3 hPa North 9.7 km/h 12.9 km/h 25% 0 mm 738.0 W/m2
09:42 27.6 °C 5.2 °C 1025.3 hPa Calm   12.9 km/h 24% 0 mm 756.0 W/m2
09:43 27.6 °C 5.2 °C 1025.3 hPa NNW 1.4 km/h 9.7 km/h 24% 0 mm 761.0 W/m2
09:47 27.9 °C 5.5 °C 1025.3 hPa North 4.7 km/h 14.5 km/h 24% 0 mm 770.0 W/m2
09:53 27.9 °C 5.5 °C 1025.3 hPa NNW 6.4 km/h 9.7 km/h 24% 0 mm 791.0 W/m2
09:59 28.2 °C 5.1 °C 1024.9 hPa NNE 3.2 km/h 3.2 km/h 23% 0 mm 812.0 W/m2
10:04 28.3 °C 5.2 °C 1024.9 hPa NNW 9.7 km/h 9.7 km/h 23% 0 mm 826.0 W/m2
10:10 28.4 °C 5.3 °C 1024.9 hPa NNE 7.9 km/h 19.3 km/h 23% 0 mm 844.0 W/m2
10:16 28.6 °C 5.4 °C 1024.9 hPa North 3.2 km/h 11.3 km/h 23% 0 mm 860.0 W/m2
10:18 28.6 °C 5.4 °C 1024.9 hPa NNW 6.4 km/h 11.3 km/h 23% 0 mm 865.0 W/m2
10:20 28.7 °C 5.5 °C 1024.9 hPa Calm   8 km/h 23% 0 mm 870.0 W/m2
10:26 29 °C 4.5 °C 1024.9 hPa North 7.9 km/h 11.3 km/h 21% 0 mm 884.0 W/m2
10:32 29.1 °C 4.5 °C 1024.9 hPa NNE 7.9 km/h 8 km/h 21% 0 mm 898.0 W/m2
10:33 29.2 °C 4.6 °C 1024.9 hPa NNW 13 km/h 14.5 km/h 21% 0 mm 898.0 W/m2
10:39 29.3 °C 4.7 °C 1024.9 hPa ENE 1.4 km/h 8 km/h 21% 0 mm 916.0 W/m2
10:44 29.4 °C 4.1 °C 1024.9 hPa NE 3.2 km/h 9.7 km/h 20% 0 mm 926.0 W/m2
10:45 29.4 °C 4.1 °C 1024.9 hPa NNW 7.9 km/h 12.9 km/h 20% 0 mm 928.0 W/m2
10:47 29.5 °C 4.2 °C 1024.9 hPa North 6.4 km/h 17.7 km/h 20% 0 mm 935.0 W/m2
10:52 29.8 °C 4.4 °C 1024.6 hPa NW 9.7 km/h 11.3 km/h 20% 0 mm 940.0 W/m2
10:57 29.8 °C 4.4 °C 1024.6 hPa North 11.1 km/h 12.9 km/h 20% 0 mm 951.0 W/m2
11:02 29.8 °C 4.4 °C 1024.6 hPa NNE 1.4 km/h 9.7 km/h 20% 0 mm 969.0 W/m2
11:03 29.8 °C 3.7 °C 1024.6 hPa WNW 1.4 km/h 9.7 km/h 19% 0 mm 970.0 W/m2
11:09 29.8 °C 3.7 °C 1024.6 hPa Calm   4.8 km/h 19% 0 mm 979.0 W/m2
11:15 29.7 °C 3.6 °C 1024.6 hPa NNW 9.7 km/h 12.9 km/h 19% 0 mm 991.0 W/m2
11:21 30.1 °C 3.9 °C 1024.3 hPa NE 3.2 km/h 8 km/h 19% 0 mm 1000.0 W/m2
11:28 30.3 °C 3.3 °C 1024.3 hPa SSE 1.4 km/h 6.4 km/h 18% 0 mm 1009.0 W/m2
11:32 30.4 °C 3.4 °C 1024.3 hPa SE 1.4 km/h 3.2 km/h 18% 0 mm 1014.0 W/m2
11:38 30.7 °C 3.7 °C 1024.3 hPa East 3.2 km/h 12.9 km/h 18% 0 mm 1025.0 W/m2
11:43 31 °C 3.1 °C 1024.3 hPa NE 3.2 km/h 11.3 km/h 17% 0 mm 1030.0 W/m2
11:50 31.1 °C 3.2 °C 1024.3 hPa NE 11.1 km/h 17.7 km/h 17% 0 mm 1034.0 W/m2
11:55 31.2 °C 3.3 °C 1024.3 hPa North 11.1 km/h 14.5 km/h 17% 0 mm 1041.0 W/m2
12:01 31.4 °C 2.6 °C 1024.3 hPa NE 11.1 km/h 11.3 km/h 16% 0 mm 1051.0 W/m2
12:06 31.5 °C 2.6 °C 1024.3 hPa ESE 6.4 km/h 8 km/h 16% 0 mm 1053.0 W/m2
12:12 31.6 °C 2.7 °C 1023.9 hPa Calm   4.8 km/h 16% 0 mm 1060.0 W/m2
12:13 31.6 °C 2.7 °C 1023.9 hPa NE 20.9 km/h 22.5 km/h 16% 0 mm 1062.0 W/m2
12:18 31.7 °C 2.8 °C 1023.9 hPa NNE 13 km/h 17.7 km/h 16% 0 mm 1069.0 W/m2
12:24 31.7 °C 1.9 °C 1023.6 hPa Calm   12.9 km/h 15% 0 mm 1067.0 W/m2
12:29 31.8 °C 2 °C 1023.6 hPa NNE 4.7 km/h 6.4 km/h 15% 0 mm 1069.0 W/m2
12:34 32 °C 3 °C 1023.6 hPa Calm   9.7 km/h 16% 0 mm 1071.0 W/m2
12:39 32.3 °C 2.4 °C 1023.6 hPa ENE 3.2 km/h 14.5 km/h 15% 0 mm 1072.0 W/m2
12:42 32.2 °C 2.3 °C 1023.2 hPa Calm   3.2 km/h 15% 0 mm 1076.0 W/m2
12:50 32.2 °C 2.3 °C 1023.2 hPa North 6.4 km/h 12.9 km/h 15% 0 mm 1079.0 W/m2
12:55 32.5 °C 3.4 °C 1023.2 hPa Calm   16.1 km/h 16% 0 mm 1069.0 W/m2
13:00 32.6 °C 2.6 °C 1022.9 hPa NE 7.9 km/h 14.5 km/h 15% 0 mm 1076.0 W/m2
13:05 32.7 °C 2.7 °C 1022.9 hPa North 11.1 km/h 22.5 km/h 15% 0 mm 1079.0 W/m2
13:07 32.7 °C 2.7 °C 1022.9 hPa NE 4.7 km/h 9.7 km/h 15% 0 mm 1088.0 W/m2
13:11 32.9 °C 1.9 °C 1022.9 hPa North 17.7 km/h 17.7 km/h 14% 0 mm 1093.0 W/m2
13:16 33.1 °C 2 °C 1022.9 hPa North 3.2 km/h 22.5 km/h 14% 0 mm 1097.0 W/m2
13:22 33.1 °C 2 °C 1022.9 hPa NE 14.3 km/h 22.5 km/h 14% 0 mm 1083.0 W/m2
13:33 32.9 °C 1.9 °C 1022.2 hPa SW 4.7 km/h 6.4 km/h 14% 0 mm 1157.0 W/m2
13:40 32.8 °C 1.8 °C 1022.2 hPa Calm   19.3 km/h 14% 0 mm 1127.0 W/m2
13:45 33.2 °C 2.1 °C 1022.2 hPa SE 7.9 km/h 24.1 km/h 14% 0 mm 1093.0 W/m2
13:51 33.3 °C 1.2 °C 1022.2 hPa NNE 3.2 km/h 16.1 km/h 13% 0 mm 1132.0 W/m2
13:56 33.4 °C 1.2 °C 1022.2 hPa WSW 3.2 km/h 12.9 km/h 13% 0 mm 1209.0 W/m2
13:58 33.4 °C 1.2 °C 1021.9 hPa South 9.7 km/h 14.5 km/h 13% 0 mm 1174.0 W/m2
14:01 33.4 °C 1.2 °C 1022.2 hPa South 17.7 km/h 19.3 km/h 13% 0 mm 1134.0 W/m2
14:07 33.7 °C 1.5 °C 1021.9 hPa East 3.2 km/h 12.9 km/h 13% 0 mm 1120.0 W/m2
14:13 33.8 °C 1.5 °C 1021.9 hPa SE 4.7 km/h 17.7 km/h 13% 0 mm 1051.0 W/m2
14:14 33.8 °C 1.5 °C 1021.9 hPa ESE 6.4 km/h 16.1 km/h 13% 0 mm 1046.0 W/m2
14:18 33.8 °C 0.4 °C 1021.9 hPa ESE 1.4 km/h 14.5 km/h 12% 0 mm 1041.0 W/m2
14:23 33.7 °C 0.4 °C 1021.6 hPa ESE 7.9 km/h 17.7 km/h 12% 0 mm 1034.0 W/m2
14:29 33.7 °C 1.5 °C 1021.9 hPa SE 13 km/h 17.7 km/h 13% 0 mm 1025.0 W/m2
14:34 33.9 °C 1.6 °C 1021.6 hPa ENE 7.9 km/h 16.1 km/h 13% 0 mm 1030.0 W/m2
14:39 34.3 °C 0.8 °C 1021.6 hPa SSE 7.9 km/h 12.9 km/h 12% 0 mm 1049.0 W/m2
14:45 34.4 °C 0.9 °C 1021.2 hPa Calm   12.9 km/h 12% 0 mm 1107.0 W/m2
14:52 34.3 °C 0.8 °C 1021.2 hPa East 11.1 km/h 12.9 km/h 12% 0 mm 211.0 W/m2
14:55 34.4 °C 0.9 °C 1021.2 hPa ESE 7.9 km/h 22.5 km/h 12% 0 mm 1104.0 W/m2
15:00 34.5 °C -0.2 °C 1020.9 hPa NE 4.7 km/h 12.9 km/h 11% 0 mm 1079.0 W/m2
15:06 34.6 °C 1 °C 1020.9 hPa SSE 7.9 km/h 19.3 km/h 12% 0 mm 1021.0 W/m2
15:12 34.4 °C 0.9 °C 1020.9 hPa SE 13 km/h 16.1 km/h 12% 0 mm 1005.0 W/m2
15:18 34.4 °C 0.9 °C 1020.9 hPa SE 13 km/h 24.1 km/h 12% 0 mm 1025.0 W/m2
15:19 34.5 °C 1 °C 1020.5 hPa ENE 7.9 km/h 24.1 km/h 12% 0 mm 1025.0 W/m2
15:23 34.1 °C 0.7 °C 1020.5 hPa SSE 1.4 km/h 17.7 km/h 12% 0 mm 246.0 W/m2
15:25 33.9 °C 0.5 °C 1020.5 hPa SSE 13 km/h 17.7 km/h 12% 0 mm 246.0 W/m2
15:30 33.9 °C 0.5 °C 1020.5 hPa ESE 4.7 km/h 9.7 km/h 12% 0 mm 185.0 W/m2
15:35 33.9 °C 0.5 °C 1020.5 hPa SE 3.2 km/h 8 km/h 12% 0 mm 239.0 W/m2
15:42 33.8 °C 1.5 °C 1020.5 hPa WSW 6.4 km/h 11.3 km/h 13% 0 mm 940.0 W/m2
15:49 34.2 °C 0.7 °C 1020.2 hPa South 1.4 km/h 8 km/h 12% 0 mm 921.0 W/m2
15:54 34.5 °C -0.2 °C 1020.2 hPa WSW 7.9 km/h 14.5 km/h 11% 0 mm 904.0 W/m2
15:59 34.6 °C -0.2 °C 1020.5 hPa East 6.4 km/h 19.3 km/h 11% 0 mm 144.0 W/m2
16:08 33.5 °C -1 °C 1020.2 hPa Calm   9.7 km/h 11% 0 mm 148.0 W/m2
16:14 33.2 °C -1.2 °C 1020.2 hPa ESE 17.7 km/h 22.5 km/h 11% 0 mm 793.0 W/m2
16:19 33.6 °C -0.9 °C 1020.2 hPa South 7.9 km/h 14.5 km/h 11% 0 mm 786.0 W/m2
16:25 33.8 °C -0.8 °C 1019.9 hPa East 9.7 km/h 9.7 km/h 11% 0 mm 287.0 W/m2
16:30 33.8 °C -0.8 °C 1019.9 hPa SE 9.7 km/h 9.7 km/h 11% 0 mm 165.0 W/m2
16:36 33.7 °C -0.8 °C 1019.9 hPa SSE 9.7 km/h 12.9 km/h 11% 0 mm 206.0 W/m2
16:41 33.2 °C -1.2 °C 1019.9 hPa SE 11.1 km/h 16.1 km/h 11% 0 mm 104.0 W/m2
16:44 32.9 °C -1.5 °C 1019.9 hPa ESE 6.4 km/h 11.3 km/h 11% 0 mm 186.0 W/m2
16:46 32.7 °C -0.4 °C 1019.9 hPa ENE 1.4 km/h 17.7 km/h 12% 0 mm 186.0 W/m2
16:49 32.7 °C -1.6 °C 1019.9 hPa NNE 6.4 km/h 9.7 km/h 11% 0 mm 652.0 W/m2
16:52 32.9 °C -1.5 °C 1019.9 hPa SE 11.1 km/h 14.5 km/h 11% 0 mm 594.0 W/m2
16:57 33.2 °C -1.2 °C 1019.9 hPa ESE 4.7 km/h 9.7 km/h 11% 0 mm 100.0 W/m2
16:59 33.3 °C -1.1 °C 1019.9 hPa SE 9.7 km/h 11.3 km/h 11% 0 mm 128.0 W/m2
17:03 33.3 °C -2.4 °C 1019.9 hPa SE 6.4 km/h 14.5 km/h 10% 0 mm 98.0 W/m2
17:09 33.3 °C -2.4 °C 1019.5 hPa Calm   12.9 km/h 10% 0 mm 577.0 W/m2
17:14 33.6 °C -2.2 °C 1019.5 hPa NNE 1.4 km/h 9.7 km/h 10% 0 mm 561.0 W/m2
17:19 33.9 °C -2 °C 1019.5 hPa East 1.4 km/h 11.3 km/h 10% 0 mm 540.0 W/m2
17:26 34.1 °C -1.8 °C 1019.5 hPa NNE 3.2 km/h 9.7 km/h 10% 0 mm 533.0 W/m2
17:32 34.3 °C -1.7 °C 1019.5 hPa East 6.4 km/h 16.1 km/h 10% 0 mm 529.0 W/m2
17:36 34.3 °C -1.7 °C 1019.5 hPa East 1.4 km/h 17.7 km/h 10% 0 mm 494.0 W/m2
17:39 34.2 °C -1.8 °C 1019.5 hPa ESE 9.7 km/h 19.3 km/h 10% 0 mm 503.0 W/m2
17:43 34.1 °C -1.8 °C 1019.5 hPa SE 4.7 km/h 22.5 km/h 10% 0 mm 471.0 W/m2
17:48 33.8 °C -2.1 °C 1019.5 hPa ENE 6.4 km/h 16.1 km/h 10% 0 mm 98.0 W/m2
17:53 33.4 °C -2.4 °C 1019.5 hPa NE 6.4 km/h 17.7 km/h 10% 0 mm 81.0 W/m2
17:58 32.9 °C -2.7 °C 1019.5 hPa ENE 7.9 km/h 12.9 km/h 10% 0 mm 130.0 W/m2
18:04 32.7 °C -1.6 °C 1019.5 hPa East 11.1 km/h 12.9 km/h 11% 0 mm 302.0 W/m2
18:10 32.6 °C -3 °C 1019.5 hPa NE 3.2 km/h 8 km/h 10% 0 mm 309.0 W/m2
18:14 32.8 °C -2.8 °C 1019.5 hPa ESE 6.4 km/h 12.9 km/h 10% 0 mm 288.0 W/m2
18:15 32.8 °C -2.8 °C 1019.2 hPa ENE 1.4 km/h 9.7 km/h 10% 0 mm 241.0 W/m2
18:21 33.1 °C -1.3 °C 1019.2 hPa ENE 6.4 km/h 11.3 km/h 11% 0 mm 220.0 W/m2
18:29 32.9 °C -1.5 °C 1019.2 hPa Calm   8 km/h 11% 0 mm 44.0 W/m2
18:31 32.9 °C -1.5 °C 1019.2 hPa ESE 3.2 km/h 6.4 km/h 11% 0 mm 44.0 W/m2
18:36 32.8 °C -1.5 °C 1019.2 hPa ESE 4.7 km/h 4.8 km/h 11% 0 mm 30.0 W/m2
18:43 32.5 °C -3 °C 1019.2 hPa Calm   6.4 km/h 10% 0 mm 60.0 W/m2
18:48 32.3 °C -1.9 °C 1019.2 hPa ESE 6.4 km/h 8 km/h 11% 0 mm 40.0 W/m2
18:53 32.1 °C 0.2 °C 1019.2 hPa SE 4.7 km/h 6.4 km/h 13% 0 mm 28.0 W/m2
18:59 31.7 °C -1.2 °C 1019.2 hPa Calm   3.2 km/h 12% 0 mm 26.0 W/m2
19:05 31.4 °C -1.4 °C 1019.5 hPa ENE 1.4 km/h 12.9 km/h 12% 0 mm 21.0 W/m2
19:10 31.1 °C -1.7 °C 1019.5 hPa Calm   4.8 km/h 12% 0 mm 14.0 W/m2
19:16 30.8 °C -1.9 °C 1019.5 hPa East 1.4 km/h 9.7 km/h 12% 0 mm 12.0 W/m2
19:21 30.6 °C -2 °C 1019.5 hPa Calm   9.7 km/h 12% 0 mm 11.0 W/m2
19:26 30.3 °C -2.3 °C 1019.5 hPa Calm   9.7 km/h 12% 0 mm 9.0 W/m2
19:32 30.1 °C -1.3 °C 1019.5 hPa Calm   3.2 km/h 13% 0 mm 5.0 W/m2
19:37 29.9 °C -0.5 °C 1019.5 hPa Calm   1.6 km/h 14% 0 mm 0.0 W/m2
19:41 29.8 °C -1.6 °C 1019.5 hPa Calm   3.2 km/h 13% 0 mm 0.0 W/m2
19:44 29.7 °C -1.7 °C 1019.9 hPa Calm   1.6 km/h 13% 0 mm 0.0 W/m2
19:46 29.6 °C -1.7 °C 1019.5 hPa Calm   1.6 km/h 13% 0 mm 0.0 W/m2
19:49 29.4 °C -1.9 °C 1019.9 hPa ESE 1.4 km/h 3.2 km/h 13% 0 mm 0.0 W/m2
19:53 29.3 °C -2 °C 1019.9 hPa Calm   1.6 km/h 13% 0 mm 0.0 W/m2
19:58 29.1 °C -1.1 °C 1019.9 hPa Calm   1.6 km/h 14% 0 mm 0.0 W/m2
20:03 28.8 °C -1.4 °C 1019.9 hPa ESE 1.4 km/h 3.2 km/h 14% 0 mm 0.0 W/m2
20:09 28.6 °C -1.5 °C 1019.9 hPa Calm   3.2 km/h 14% 0 mm 0.0 W/m2
20:10 28.5 °C -1.6 °C 1019.9 hPa SE 1.4 km/h 3.2 km/h 14% 0 mm 0.0 W/m2
20:13 28.4 °C -1.7 °C 1019.9 hPa Calm   4.8 km/h 14% 0 mm 0.0 W/m2
20:27 28 °C -2 °C 1019.9 hPa SE 6.4 km/h 6.4 km/h 14% 0 mm 0.0 W/m2
20:33 27.9 °C -2.1 °C 1020.2 hPa Calm   4.8 km/h 14% 0 mm 0.0 W/m2
20:39 27.8 °C -1.2 °C 1020.2 hPa Calm   3.2 km/h 15% 0 mm 0.0 W/m2
20:44 27.7 °C -2.2 °C 1020.2 hPa Calm   3.2 km/h 14% 0 mm 0.0 W/m2
20:46 27.6 °C -1.4 °C 1020.2 hPa Calm   3.2 km/h 15% 0 mm 0.0 W/m2
20:52 27.4 °C -1.5 °C 1020.2 hPa Calm   3.2 km/h 15% 0 mm 0.0 W/m2
20:58 27.3 °C -1.6 °C 1020.2 hPa SE 1.4 km/h 3.2 km/h 15% 0 mm 0.0 W/m2
21:05 27.2 °C -1.7 °C 1020.2 hPa SE 4.8 km/h 4.8 km/h 15% 0 mm 0.0 W/m2
21:10 27 °C -1 °C 1020.2 hPa Calm   3.2 km/h 16% 0 mm 0.0 W/m2
21:16 26.8 °C -1.1 °C 1020.2 hPa ESE 7.9 km/h 8 km/h 16% 0 mm 0.0 W/m2
21:22 26.8 °C -2 °C 1020.5 hPa SE 3.2 km/h 6.4 km/h 15% 0 mm 0.0 W/m2
21:27 26.8 °C -2 °C 1020.2 hPa Calm   8 km/h 15% 0 mm 0.0 W/m2
21:33 26.7 °C -1.2 °C 1020.5 hPa Calm   6.4 km/h 16% 0 mm 0.0 W/m2
21:38 26.4 °C -1.4 °C 1020.5 hPa East 1.4 km/h 1.6 km/h 16% 0 mm 0.0 W/m2
21:42 26.3 °C -0.7 °C 1020.5 hPa Calm   1.6 km/h 17% 0 mm 0.0 W/m2
21:48 26 °C -0.9 °C 1020.5 hPa Calm   3.2 km/h 17% 0 mm 0.0 W/m2
21:53 25.8 °C -1.1 °C 1020.5 hPa Calm   1.6 km/h 17% 0 mm 0.0 W/m2
21:55 25.7 °C -1.2 °C 1020.5 hPa Calm   1.6 km/h 17% 0 mm 0.0 W/m2
21:58 25.6 °C -1.3 °C 1020.5 hPa Calm   1.6 km/h 17% 0 mm 0.0 W/m2
22:03 25.3 °C -1.5 °C 1020.5 hPa Calm   3.2 km/h 17% 0 mm 0.0 W/m2
22:08 25.1 °C -0.9 °C 1020.5 hPa Calm     18% 0 mm 0.0 W/m2
22:13 24.8 °C -1.1 °C 1020.9 hPa Calm   3.2 km/h 18% 0 mm 0.0 W/m2
22:18 24.6 °C -1.3 °C 1020.9 hPa Calm   1.6 km/h 18% 0 mm 0.0 W/m2
22:21 24.5 °C -1.4 °C 1021.2 hPa WSW 1.4 km/h 3.2 km/h 18% 0 mm 0.0 W/m2
22:29 24.4 °C 1.3 °C 1021.2 hPa Calm   3.2 km/h 22% 0 mm 0.0 W/m2
22:30 24.6 °C 3.3 °C 1021.2 hPa South 6.4 km/h 9.7 km/h 25% 0 mm 0.0 W/m2
22:35 24.8 °C 5.1 °C 1021.2 hPa SSW 4.7 km/h 8 km/h 28% 0 mm 0.0 W/m2
22:37 24.9 °C 5.6 °C 1021.2 hPa South 1.4 km/h 8 km/h 29% 0 mm 0.0 W/m2
22:43 25.3 °C 7 °C 1021.2 hPa SW 9.7 km/h 19.3 km/h 31% 0 mm 0.0 W/m2
22:48 25.4 °C 7 °C 1021.2 hPa Calm   12.9 km/h 31% 0 mm 0.0 W/m2
22:56 25.5 °C 7.6 °C 1021.2 hPa South 3.2 km/h 20.9 km/h 32% 0 mm 0.0 W/m2
23:01 25.5 °C 7.6 °C 1021.2 hPa SSW 7.9 km/h 14.5 km/h 32% 0 mm 0.0 W/m2
23:02 25.5 °C 7.6 °C 1021.2 hPa South 11.1 km/h 14.5 km/h 32% 0 mm 0.0 W/m2
23:07 25.4 °C 7.5 °C 1021.2 hPa South 9.7 km/h 17.7 km/h 32% 0 mm 0.0 W/m2
23:12 25.3 °C 7.4 °C 1021.2 hPa SW 4.7 km/h 12.9 km/h 32% 0 mm 0.0 W/m2
23:17 25.4 °C 7.5 °C 1021.2 hPa SE 3.2 km/h 9.7 km/h 32% 0 mm 0.0 W/m2
23:23 25.4 °C 7 °C 1021.2 hPa SSE 4.7 km/h 14.5 km/h 31% 0 mm 0.0 W/m2
23:29 25.3 °C 6.5 °C 1021.2 hPa ESE 3.2 km/h 14.5 km/h 30% 0 mm 0.0 W/m2
23:34 25.4 °C 6.6 °C 1021.2 hPa SE 3.2 km/h 20.9 km/h 30% 0 mm 0.0 W/m2
23:39 25.4 °C 6.1 °C 1021.2 hPa SSE 11.1 km/h 17.7 km/h 29% 0 mm 0.0 W/m2
23:42 25.5 °C 6.2 °C 1021.2 hPa SSE 16.3 km/h 20.9 km/h 29% 0 mm 0.0 W/m2
23:49 25.6 °C 6.2 °C 1021.2 hPa SE 9.7 km/h 20.9 km/h 29% 0 mm 0.0 W/m2
23:55 25.5 °C 6.2 °C 1021.2 hPa SSE 16.3 km/h 19.3 km/h 29% 0 mm 0.0 W/m2
23:59 25.4 °C 6.1 °C 1021.2 hPa SW 6.4 km/h 24.1 km/h 29% 0 mm 0.0 W/m2
Olympia, Windhoek, Namibia
Compliments of Weather Underground - 3.5 mb